createdAt,value
2023-05-09T00:00:49.872Z,13.44
2023-05-09T00:01:49.891Z,13.46
2023-05-09T00:02:49.873Z,13.46
2023-05-09T00:03:49.827Z,13.54
2023-05-09T00:04:49.986Z,13.55
2023-05-09T00:05:49.807Z,13.47
2023-05-09T00:06:49.789Z,13.51
2023-05-09T00:07:49.777Z,13.50
2023-05-09T00:08:49.767Z,13.48
2023-05-09T00:09:49.752Z,13.50
2023-05-09T00:10:49.738Z,13.41
2023-05-09T00:11:49.729Z,13.48
2023-05-09T00:12:49.779Z,13.47
2023-05-09T00:13:49.696Z,13.47
2023-05-09T00:14:49.800Z,13.47
2023-05-09T00:15:49.666Z,13.38
2023-05-09T00:16:49.682Z,13.38
2023-05-09T00:17:49.661Z,13.39
2023-05-09T00:18:49.626Z,13.39
2023-05-09T00:19:49.611Z,13.44
2023-05-09T00:20:49.597Z,13.48
2023-05-09T00:21:49.580Z,13.43
2023-05-09T00:22:49.571Z,13.39
2023-05-09T00:23:49.565Z,13.54
2023-05-09T00:24:49.554Z,13.47
2023-05-09T00:25:49.533Z,13.43
2023-05-09T00:26:49.539Z,13.51
2023-05-09T00:27:49.501Z,13.43
2023-05-09T00:28:49.490Z,13.47
2023-05-09T00:29:49.479Z,13.36
2023-05-09T00:30:49.601Z,13.41
2023-05-09T00:31:49.511Z,13.36
2023-05-09T00:32:49.504Z,13.38
2023-05-09T00:33:49.426Z,13.36
2023-05-09T00:34:49.411Z,13.36
2023-05-09T00:35:49.403Z,13.36
2023-05-09T00:36:49.416Z,13.36
2023-05-09T00:37:49.369Z,13.36
2023-05-09T00:38:49.366Z,13.28
2023-05-09T00:39:49.351Z,13.39
2023-05-09T00:40:49.334Z,13.36
2023-05-09T00:41:49.313Z,13.31
2023-05-09T00:42:49.310Z,13.36
2023-05-09T00:43:49.286Z,13.43
2023-05-09T00:44:49.273Z,13.36
2023-05-09T00:45:49.336Z,13.39
2023-05-09T00:46:49.377Z,13.36
2023-05-09T00:47:49.256Z,13.31
2023-05-09T00:48:49.220Z,13.35
2023-05-09T00:49:49.208Z,13.28
2023-05-09T00:50:49.195Z,13.31
2023-05-09T00:51:49.182Z,13.41
2023-05-09T00:52:49.177Z,13.35
2023-05-09T00:53:49.161Z,13.31
2023-05-09T00:54:49.148Z,13.36
2023-05-09T00:55:49.136Z,13.48
2023-05-09T00:56:49.121Z,13.32
2023-05-09T00:57:49.094Z,13.27
2023-05-09T00:58:49.084Z,13.50
2023-05-09T00:59:49.072Z,13.38
2023-05-09T01:00:49.065Z,13.35
2023-05-09T01:01:49.115Z,13.36
2023-05-09T01:02:49.291Z,13.36
2023-05-09T01:03:49.161Z,13.32
2023-05-09T01:04:49.004Z,13.38
2023-05-09T01:05:48.985Z,13.43
2023-05-09T01:06:48.973Z,13.41
2023-05-09T01:07:48.955Z,13.55
2023-05-09T01:08:49.148Z,13.47
2023-05-09T01:09:48.931Z,13.53
2023-05-09T01:10:48.920Z,13.46
2023-05-09T01:11:48.912Z,13.43
2023-05-09T01:12:48.915Z,13.50
2023-05-09T01:13:48.883Z,13.43
2023-05-09T01:14:48.875Z,13.44
2023-05-09T01:15:48.872Z,13.50
2023-05-09T01:16:48.846Z,13.51
2023-05-09T01:17:48.861Z,13.51
2023-05-09T01:18:48.940Z,13.38
2023-05-09T01:19:48.805Z,13.39
2023-05-09T01:20:48.784Z,13.36
2023-05-09T01:21:48.777Z,13.36
2023-05-09T01:22:48.763Z,13.36
2023-05-09T01:23:48.768Z,13.47
2023-05-09T01:24:48.733Z,13.53
2023-05-09T01:25:48.725Z,13.44
2023-05-09T01:26:48.719Z,13.31
2023-05-09T01:27:48.697Z,13.44
2023-05-09T01:28:48.687Z,13.35
2023-05-09T01:29:48.674Z,13.39
2023-05-09T01:30:48.658Z,13.50
2023-05-09T01:31:48.687Z,13.38
2023-05-09T01:32:48.668Z,13.53
2023-05-09T01:33:48.609Z,13.48
2023-05-09T01:34:48.730Z,13.51
2023-05-09T01:35:48.594Z,13.44
2023-05-09T01:36:48.580Z,13.39
2023-05-09T01:37:48.563Z,13.44
2023-05-09T01:38:48.557Z,13.44
2023-05-09T01:39:48.543Z,13.32
2023-05-09T01:40:48.532Z,13.39
2023-05-09T01:41:48.517Z,13.36
2023-05-09T01:42:48.516Z,13.41
2023-05-09T01:43:48.578Z,13.43
2023-05-09T01:44:48.474Z,13.36
2023-05-09T01:45:48.460Z,13.36
2023-05-09T01:46:48.495Z,13.25
2023-05-09T01:47:48.572Z,13.36
2023-05-09T01:48:48.416Z,13.36
2023-05-09T01:49:48.401Z,13.35
2023-05-09T01:50:48.519Z,13.39
2023-05-09T01:51:48.375Z,13.36
2023-05-09T01:52:48.368Z,13.43
2023-05-09T01:53:48.366Z,13.38
2023-05-09T01:54:48.341Z,13.32
2023-05-09T01:55:48.323Z,13.25
2023-05-09T01:56:48.321Z,13.31
2023-05-09T01:57:48.294Z,13.31
2023-05-09T01:58:48.293Z,13.24
2023-05-09T01:59:48.266Z,13.22
2023-05-09T02:00:48.280Z,13.24
2023-05-09T02:01:48.273Z,13.27
2023-05-09T02:02:48.269Z,13.16
2023-05-09T02:03:48.213Z,13.13
2023-05-09T02:04:48.206Z,13.07
2023-05-09T02:05:48.209Z,13.25
2023-05-09T02:06:48.297Z,13.21
2023-05-09T02:07:48.164Z,13.19
2023-05-09T02:08:48.161Z,13.13
2023-05-09T02:09:48.148Z,13.24
2023-05-09T02:10:48.127Z,13.09
2023-05-09T02:11:48.109Z,13.16
2023-05-09T02:12:48.137Z,13.21
2023-05-09T02:13:48.093Z,13.31
2023-05-09T02:14:48.070Z,13.25
2023-05-09T02:15:48.067Z,13.35
2023-05-09T02:16:48.117Z,13.25
2023-05-09T02:17:48.095Z,13.28
2023-05-09T02:18:48.022Z,13.27
2023-05-09T02:19:48.004Z,13.25
2023-05-09T02:20:48.022Z,13.24
2023-05-09T02:21:47.973Z,13.25
2023-05-09T02:22:48.106Z,13.22
2023-05-09T02:23:47.955Z,13.24
2023-05-09T02:24:47.941Z,13.28
2023-05-09T02:25:47.929Z,13.24
2023-05-09T02:26:47.914Z,13.13
2023-05-09T02:27:47.900Z,13.25
2023-05-09T02:28:47.889Z,13.21
2023-05-09T02:29:47.871Z,13.22
2023-05-09T02:30:47.864Z,13.21
2023-05-09T02:31:47.872Z,13.29
2023-05-09T02:32:47.899Z,13.36
2023-05-09T02:33:47.819Z,13.22
2023-05-09T02:34:47.803Z,13.29
2023-05-09T02:35:47.794Z,13.22
2023-05-09T02:36:47.775Z,13.27
2023-05-09T02:37:47.767Z,13.21
2023-05-09T02:38:47.903Z,13.31
2023-05-09T02:39:47.763Z,13.22
2023-05-09T02:40:47.730Z,13.31
2023-05-09T02:41:47.719Z,13.38
2023-05-09T02:42:47.702Z,13.25
2023-05-09T02:43:47.696Z,13.39
2023-05-09T02:44:47.683Z,13.28
2023-05-09T02:45:47.682Z,13.32
2023-05-09T02:46:47.653Z,13.31
2023-05-09T02:47:47.674Z,13.17
2023-05-09T02:48:47.620Z,13.28
2023-05-09T02:49:47.608Z,13.22
2023-05-09T02:50:47.601Z,13.29
2023-05-09T02:51:47.589Z,13.16
2023-05-09T02:52:47.605Z,13.25
2023-05-09T02:53:47.565Z,13.16
2023-05-09T02:54:48.018Z,13.17
2023-05-09T02:55:47.546Z,13.25
2023-05-09T02:56:47.513Z,13.10
2023-05-09T02:57:47.511Z,13.21
2023-05-09T02:58:47.494Z,13.17
2023-05-09T02:59:47.479Z,13.13
2023-05-09T03:00:47.473Z,13.09
2023-05-09T03:01:47.490Z,13.09
2023-05-09T03:02:47.523Z,13.12
2023-05-09T03:03:47.572Z,13.09
2023-05-09T03:04:47.415Z,13.12
2023-05-09T03:05:47.397Z,13.03
2023-05-09T03:06:47.392Z,13.09
2023-05-09T03:07:47.378Z,13.12
2023-05-09T03:08:47.360Z,13.06
2023-05-09T03:09:47.343Z,13.07
2023-05-09T03:10:47.461Z,13.04
2023-05-09T03:11:47.333Z,13.07
2023-05-09T03:12:47.325Z,13.07
2023-05-09T03:13:47.294Z,13.07
2023-05-09T03:14:47.284Z,13.06
2023-05-09T03:15:47.269Z,12.98
2023-05-09T03:16:47.348Z,12.94
2023-05-09T03:17:47.250Z,13.06
2023-05-09T03:18:47.230Z,12.96
2023-05-09T03:19:47.218Z,12.99
2023-05-09T03:20:47.210Z,12.99
2023-05-09T03:21:47.197Z,12.96
2023-05-09T03:22:47.181Z,13.03
2023-05-09T03:23:47.162Z,13.01
2023-05-09T03:24:47.162Z,13.06
2023-05-09T03:25:47.134Z,13.07
2023-05-09T03:26:47.242Z,12.92
2023-05-09T03:27:47.111Z,13.03
2023-05-09T03:28:47.100Z,13.01
2023-05-09T03:29:47.090Z,13.06
2023-05-09T03:30:47.077Z,12.99
2023-05-09T03:31:47.257Z,13.10
2023-05-09T03:32:47.082Z,13.03
2023-05-09T03:33:47.183Z,13.03
2023-05-09T03:34:47.023Z,13.09
2023-05-09T03:35:47.108Z,13.09
2023-05-09T03:36:46.997Z,12.98
2023-05-09T03:37:46.978Z,13.03
2023-05-09T03:38:46.965Z,13.13
2023-05-09T03:39:46.959Z,13.07
2023-05-09T03:40:46.950Z,13.09
2023-05-09T03:41:46.930Z,13.16
2023-05-09T03:42:47.057Z,12.96
2023-05-09T03:43:47.101Z,12.99
2023-05-09T03:44:46.888Z,13.06
2023-05-09T03:45:46.879Z,13.10
2023-05-09T03:46:46.882Z,13.13
2023-05-09T03:47:46.877Z,13.16
2023-05-09T03:48:46.837Z,13.16
2023-05-09T03:49:46.830Z,13.09
2023-05-09T03:50:46.812Z,13.01
2023-05-09T03:51:47.102Z,13.09
2023-05-09T03:52:46.792Z,13.07
2023-05-09T03:53:46.771Z,13.04
2023-05-09T03:54:46.754Z,13.06
2023-05-09T03:55:46.761Z,13.09
2023-05-09T03:56:46.729Z,13.21
2023-05-09T03:57:46.714Z,13.17
2023-05-09T03:58:46.835Z,13.21
2023-05-09T03:59:47.439Z,13.19
2023-05-09T04:00:46.687Z,13.16
2023-05-09T04:01:46.689Z,13.16
2023-05-09T04:02:46.702Z,13.25
2023-05-09T04:03:46.724Z,13.14
2023-05-09T04:04:46.630Z,13.19
2023-05-09T04:05:46.606Z,13.25
2023-05-09T04:06:46.593Z,13.25
2023-05-09T04:07:46.577Z,13.22
2023-05-09T04:08:46.576Z,13.22
2023-05-09T04:09:46.711Z,13.29
2023-05-09T04:10:46.545Z,13.24
2023-05-09T04:11:46.531Z,13.21
2023-05-09T04:12:46.542Z,13.22
2023-05-09T04:13:46.656Z,13.17
2023-05-09T04:14:48.918Z,13.19
2023-05-09T04:15:46.720Z,13.14
2023-05-09T04:16:46.494Z,13.19
2023-05-09T04:17:46.475Z,13.19
2023-05-09T04:18:46.436Z,13.09
2023-05-09T04:19:46.771Z,13.10
2023-05-09T04:20:46.447Z,13.12
2023-05-09T04:21:46.690Z,13.16
2023-05-09T04:22:47.111Z,13.21
2023-05-09T04:23:46.369Z,13.24
2023-05-09T04:24:46.359Z,13.28
2023-05-09T04:25:46.341Z,13.19
2023-05-09T04:26:46.343Z,13.28
2023-05-09T04:27:46.317Z,13.10
2023-05-09T04:28:46.308Z,13.10
2023-05-09T04:29:46.299Z,13.21
2023-05-09T04:30:46.437Z,13.24
2023-05-09T04:31:46.448Z,13.13
2023-05-09T04:32:46.437Z,13.17
2023-05-09T04:33:46.229Z,13.12
2023-05-09T04:34:46.216Z,13.12
2023-05-09T04:35:46.198Z,13.17
2023-05-09T04:36:46.190Z,13.19
2023-05-09T04:37:46.175Z,13.22
2023-05-09T04:38:46.170Z,13.22
2023-05-09T04:39:46.153Z,13.28
2023-05-09T04:40:46.150Z,13.27
2023-05-09T04:41:46.126Z,13.24
2023-05-09T04:42:46.120Z,13.21
2023-05-09T04:43:46.102Z,13.28
2023-05-09T04:44:46.099Z,13.29
2023-05-09T04:45:46.078Z,13.31
2023-05-09T04:46:46.311Z,13.27
2023-05-09T04:47:46.111Z,13.43
2023-05-09T04:48:46.028Z,13.41
2023-05-09T04:49:46.023Z,13.43
2023-05-09T04:50:46.020Z,13.41
2023-05-09T04:51:46.000Z,13.48
2023-05-09T04:52:46.001Z,13.39
2023-05-09T04:53:45.972Z,13.36
2023-05-09T04:54:45.954Z,13.46
2023-05-09T04:55:45.945Z,13.41
2023-05-09T04:56:46.588Z,13.48
2023-05-09T04:57:45.910Z,13.47
2023-05-09T04:58:45.901Z,13.41
2023-05-09T04:59:45.904Z,13.47
2023-05-09T05:00:45.878Z,13.43
2023-05-09T05:01:46.131Z,13.36
2023-05-09T05:02:46.043Z,13.47
2023-05-09T05:03:45.841Z,13.35
2023-05-09T05:04:45.867Z,13.24
2023-05-09T05:05:45.821Z,13.24
2023-05-09T05:06:46.090Z,13.14
2023-05-09T05:07:45.775Z,13.25
2023-05-09T05:08:45.789Z,13.16
2023-05-09T05:09:45.751Z,13.17
2023-05-09T05:10:45.733Z,13.21
2023-05-09T05:11:57.324Z,13.17
2023-05-09T05:12:46.776Z,13.22
2023-05-09T05:13:45.704Z,13.27
2023-05-09T05:14:45.684Z,13.17
2023-05-09T05:15:45.918Z,13.13
2023-05-09T05:16:45.669Z,13.24
2023-05-09T05:17:45.664Z,13.27
2023-05-09T05:18:45.763Z,13.29
2023-05-09T05:19:45.607Z,13.27
2023-05-09T05:20:45.595Z,13.24
2023-05-09T05:21:45.581Z,13.21
2023-05-09T05:22:45.570Z,13.31
2023-05-09T05:23:45.567Z,13.39
2023-05-09T05:24:45.548Z,13.31
2023-05-09T05:25:45.541Z,13.38
2023-05-09T05:26:45.591Z,13.35
2023-05-09T05:27:45.556Z,13.35
2023-05-09T05:28:45.492Z,13.32
2023-05-09T05:29:45.481Z,13.44
2023-05-09T05:30:45.475Z,13.41
2023-05-09T05:31:45.506Z,13.47
2023-05-09T05:32:45.481Z,13.44
2023-05-09T05:33:45.422Z,13.47
2023-05-09T05:34:45.541Z,13.54
2023-05-09T05:35:45.388Z,13.50
2023-05-09T05:36:45.384Z,13.50
2023-05-09T05:37:46.479Z,13.65
2023-05-09T05:38:45.359Z,13.53
2023-05-09T05:39:45.337Z,13.59
2023-05-09T05:40:45.330Z,13.54
2023-05-09T05:41:45.310Z,13.50
2023-05-09T05:42:45.297Z,13.54
2023-05-09T05:43:45.293Z,13.54
2023-05-09T05:44:45.279Z,13.57
2023-05-09T05:45:45.286Z,13.66
2023-05-09T05:46:45.245Z,13.61
2023-05-09T05:47:45.255Z,13.73
2023-05-09T05:48:45.214Z,13.63
2023-05-09T05:49:45.197Z,13.69
2023-05-09T05:50:45.310Z,13.75
2023-05-09T05:51:45.180Z,13.81
2023-05-09T05:52:45.160Z,13.87
2023-05-09T05:53:45.148Z,13.84
2023-05-09T05:54:45.143Z,13.86
2023-05-09T05:55:45.120Z,13.96
2023-05-09T05:56:45.112Z,14.11
2023-05-09T05:57:45.100Z,14.08
2023-05-09T05:58:45.082Z,14.12
2023-05-09T05:59:45.063Z,13.99
2023-05-09T06:00:45.045Z,14.16
2023-05-09T06:01:45.061Z,14.05
2023-05-09T06:02:45.117Z,14.16
2023-05-09T06:03:45.099Z,14.16
2023-05-09T06:04:45.295Z,14.23
2023-05-09T06:05:44.998Z,14.27
2023-05-09T06:06:45.093Z,14.12
2023-05-09T06:07:44.960Z,14.08
2023-05-09T06:08:44.946Z,14.19
2023-05-09T06:09:44.934Z,14.29
2023-05-09T06:10:44.930Z,14.17
2023-05-09T06:11:44.902Z,14.05
2023-05-09T06:12:44.934Z,14.08
2023-05-09T06:13:44.873Z,14.17
2023-05-09T06:14:44.869Z,14.20
2023-05-09T06:15:44.850Z,14.29
2023-05-09T06:16:44.855Z,14.41
2023-05-09T06:17:44.867Z,14.45
2023-05-09T06:18:44.812Z,14.34
2023-05-09T06:19:44.796Z,14.36
2023-05-09T06:20:44.796Z,14.42
2023-05-09T06:21:44.781Z,14.36
2023-05-09T06:22:44.910Z,14.39
2023-05-09T06:23:51.098Z,14.31
2023-05-09T06:24:45.758Z,14.45
2023-05-09T06:25:44.709Z,14.35
2023-05-09T06:26:44.708Z,14.38
2023-05-09T06:27:44.685Z,14.44
2023-05-09T06:28:44.674Z,14.46
2023-05-09T06:29:44.662Z,14.59
2023-05-09T06:30:44.649Z,14.61
2023-05-09T06:31:44.707Z,14.80
2023-05-09T06:32:44.643Z,14.75
2023-05-09T06:33:44.609Z,14.79
2023-05-09T06:34:44.605Z,14.79
2023-05-09T06:35:44.585Z,14.86
2023-05-09T06:36:44.580Z,14.98
2023-05-09T06:37:45.504Z,15.07
2023-05-09T06:38:44.714Z,15.09
2023-05-09T06:39:44.528Z,15.16
2023-05-09T06:40:44.522Z,15.19
2023-05-09T06:41:44.501Z,15.12
2023-05-09T06:42:44.495Z,14.98
2023-05-09T06:43:44.480Z,14.95
2023-05-09T06:44:44.468Z,14.97
2023-05-09T06:45:44.452Z,14.94
2023-05-09T06:46:44.472Z,15.07
2023-05-09T06:47:44.454Z,15.15
2023-05-09T06:48:44.428Z,15.11
2023-05-09T06:49:44.403Z,15.13
2023-05-09T06:50:44.391Z,15.20
2023-05-09T06:51:44.380Z,15.22
2023-05-09T06:52:44.360Z,15.31
2023-05-09T06:53:44.341Z,15.31
2023-05-09T06:54:44.459Z,15.41
2023-05-09T06:55:44.322Z,15.51
2023-05-09T06:56:44.311Z,15.81
2023-05-09T06:57:44.298Z,15.95
2023-05-09T06:58:44.281Z,15.92
2023-05-09T06:59:44.270Z,15.98
2023-05-09T07:00:44.259Z,15.96
2023-05-09T07:01:44.273Z,15.78
2023-05-09T07:02:44.261Z,15.84
2023-05-09T07:03:44.215Z,16.01
2023-05-09T07:04:44.223Z,16.04
2023-05-09T07:05:44.197Z,16.16
2023-05-09T07:06:44.226Z,16.01
2023-05-09T07:07:44.171Z,16.03
2023-05-09T07:08:44.166Z,15.99
2023-05-09T07:09:44.135Z,16.13
2023-05-09T07:10:44.251Z,16.40
2023-05-09T07:11:44.118Z,16.55
2023-05-09T07:12:44.115Z,16.59
2023-05-09T07:13:44.084Z,16.41
2023-05-09T07:14:44.069Z,16.40
2023-05-09T07:15:44.199Z,16.44
2023-05-09T07:16:44.109Z,16.44
2023-05-09T07:17:44.059Z,16.51
2023-05-09T07:18:44.031Z,16.66
2023-05-09T07:19:44.002Z,16.59
2023-05-09T07:20:43.996Z,16.59
2023-05-09T07:21:43.980Z,16.62
2023-05-09T07:22:44.000Z,16.80
2023-05-09T07:23:43.963Z,16.82
2023-05-09T07:24:43.944Z,17.14
2023-05-09T07:25:43.984Z,17.14
2023-05-09T07:26:44.057Z,17.25
2023-05-09T07:27:43.898Z,17.38
2023-05-09T07:30:43.084Z,17.46
2023-05-09T07:31:43.115Z,17.57
2023-05-09T07:32:43.082Z,17.80
2023-05-09T07:33:43.292Z,17.91
2023-05-09T07:34:43.031Z,18.09
2023-05-09T07:35:43.028Z,18.09
2023-05-09T07:36:43.008Z,18.07
2023-05-09T07:37:42.994Z,18.10
2023-05-09T07:38:42.970Z,18.26
2023-05-09T07:39:42.962Z,18.14
2023-05-09T07:40:42.939Z,18.09
2023-05-09T07:41:42.943Z,18.28
2023-05-09T07:42:43.047Z,18.51
2023-05-09T07:43:42.902Z,18.56
2023-05-09T07:44:42.885Z,18.68
2023-05-09T07:45:42.916Z,19.02
2023-05-09T07:46:42.946Z,19.53
2023-05-09T07:47:42.871Z,19.47
2023-05-09T07:48:42.839Z,19.35
2023-05-09T07:49:42.822Z,19.20
2023-05-09T07:50:42.810Z,19.46
2023-05-09T07:51:42.808Z,19.40
2023-05-09T07:52:42.786Z,19.25
2023-05-09T07:53:42.770Z,19.13
2023-05-09T07:54:42.756Z,18.82
2023-05-09T07:55:42.748Z,19.13
2023-05-09T07:56:42.798Z,18.91
2023-05-09T07:57:42.721Z,18.66
2023-05-09T07:58:42.813Z,18.97
2023-05-09T07:59:42.693Z,19.12
2023-05-09T08:00:42.673Z,19.24
2023-05-09T08:01:42.659Z,19.32
2023-05-09T08:02:42.729Z,19.47
2023-05-09T08:03:42.679Z,19.52
2023-05-09T08:04:42.648Z,19.38
2023-05-09T08:05:42.615Z,19.64
2023-05-09T08:06:42.596Z,19.95
2023-05-09T08:07:42.587Z,20.23
2023-05-09T08:08:42.578Z,20.51
2023-05-09T08:09:42.593Z,20.79
2023-05-09T08:10:42.539Z,20.60
2023-05-09T08:11:42.533Z,20.61
2023-05-09T08:12:42.549Z,20.57
2023-05-09T08:13:42.517Z,20.33
2023-05-09T08:14:42.618Z,20.00
2023-05-09T08:15:42.618Z,19.79
2023-05-09T08:16:42.472Z,19.70
2023-05-09T08:17:42.494Z,19.95
2023-05-09T08:18:42.600Z,19.82
2023-05-09T08:19:42.430Z,19.72
2023-05-09T08:20:42.423Z,19.85
2023-05-09T08:21:42.608Z,19.72
2023-05-09T08:22:42.387Z,19.79
2023-05-09T08:23:42.378Z,19.90
2023-05-09T08:24:42.364Z,19.97
2023-05-09T08:25:42.348Z,20.17
2023-05-09T08:26:42.340Z,20.08
2023-05-09T08:27:42.350Z,20.27
2023-05-09T08:28:42.312Z,20.40
2023-05-09T08:29:42.298Z,20.51
2023-05-09T08:30:42.445Z,20.41
2023-05-09T08:31:42.294Z,20.50
2023-05-09T08:32:42.324Z,20.50
2023-05-09T08:33:42.254Z,20.12
2023-05-09T08:34:42.244Z,19.94
2023-05-09T08:35:42.225Z,19.65
2023-05-09T08:36:42.215Z,19.71
2023-05-09T08:37:42.202Z,19.70
2023-05-09T08:38:42.281Z,19.75
2023-05-09T08:39:42.173Z,20.08
2023-05-09T08:40:42.158Z,20.26
2023-05-09T08:41:42.151Z,20.16
2023-05-09T08:42:42.135Z,20.19
2023-05-09T08:43:42.118Z,20.13
2023-05-09T08:44:42.103Z,19.98
2023-05-09T08:45:42.085Z,19.87
2023-05-09T08:46:42.290Z,19.85
2023-05-09T08:47:42.135Z,19.75
2023-05-09T08:48:42.062Z,19.50
2023-05-09T08:49:42.039Z,19.32
2023-05-09T08:50:42.030Z,18.96
2023-05-09T08:51:42.010Z,18.62
2023-05-09T08:52:41.997Z,18.53
2023-05-09T08:53:41.983Z,18.57
2023-05-09T08:54:41.971Z,18.47
2023-05-09T08:55:41.965Z,18.46
2023-05-09T08:56:41.948Z,18.32
2023-05-09T08:57:41.932Z,18.28
2023-05-09T08:58:41.921Z,18.23
2023-05-09T08:59:41.908Z,18.34
2023-05-09T09:00:41.946Z,18.17
2023-05-09T09:01:41.980Z,18.20
2023-05-09T09:02:42.035Z,18.13
2023-05-09T09:03:41.852Z,18.13
2023-05-09T09:04:41.879Z,17.87
2023-05-09T09:05:42.506Z,17.92
2023-05-09T09:06:41.813Z,17.92
2023-05-09T09:07:41.811Z,17.84
2023-05-09T09:08:41.795Z,17.84
2023-05-09T09:09:41.971Z,17.68
2023-05-09T09:10:41.827Z,17.81
2023-05-09T09:11:41.819Z,17.95
2023-05-09T09:12:41.786Z,18.13
2023-05-09T09:13:41.747Z,18.21
2023-05-09T09:14:41.917Z,18.20
2023-05-09T09:15:41.697Z,18.11
2023-05-09T09:16:41.740Z,18.07
2023-05-09T09:17:41.808Z,18.13
2023-05-09T09:18:41.769Z,18.14
2023-05-09T09:19:41.641Z,18.19
2023-05-09T09:20:41.656Z,18.25
2023-05-09T09:21:41.856Z,18.28
2023-05-09T09:22:41.610Z,18.36
2023-05-09T09:23:41.591Z,18.47
2023-05-09T09:24:41.574Z,18.20
2023-05-09T09:25:41.568Z,18.14
2023-05-09T09:26:41.537Z,18.17
2023-05-09T09:27:41.726Z,18.16
2023-05-09T09:28:41.521Z,18.32
2023-05-09T09:29:41.493Z,18.31
2023-05-09T09:30:41.487Z,18.19
2023-05-09T09:31:41.486Z,18.26
2023-05-09T09:32:41.494Z,18.35
2023-05-09T09:33:41.442Z,18.46
2023-05-09T09:34:41.560Z,18.69
2023-05-09T09:35:41.431Z,18.97
2023-05-09T09:36:41.431Z,19.24
2023-05-09T09:37:41.396Z,19.10
2023-05-09T09:38:41.380Z,19.10
2023-05-09T09:39:41.365Z,18.96
2023-05-09T09:40:41.354Z,18.91
2023-05-09T09:41:41.341Z,18.94
2023-05-09T09:42:41.319Z,18.99
2023-05-09T09:43:41.308Z,19.01
2023-05-09T09:44:41.302Z,18.93
2023-05-09T09:45:41.286Z,19.16
2023-05-09T09:46:41.276Z,18.96
2023-05-09T09:47:41.278Z,18.82
2023-05-09T09:48:41.241Z,18.83
2023-05-09T09:49:41.233Z,18.75
2023-05-09T09:50:41.337Z,18.78
2023-05-09T09:51:41.211Z,18.71
2023-05-09T09:52:41.293Z,18.78
2023-05-09T09:53:41.178Z,18.82
2023-05-09T09:54:41.162Z,18.91
2023-05-09T09:55:41.144Z,19.06
2023-05-09T09:56:41.166Z,19.06
2023-05-09T09:57:41.136Z,18.97
2023-05-09T09:58:41.112Z,19.05
2023-05-09T09:59:41.098Z,19.12
2023-05-09T10:00:41.087Z,19.21
2023-05-09T10:01:41.093Z,19.07
2023-05-09T10:02:41.090Z,19.09
2023-05-09T10:03:41.078Z,18.84
2023-05-09T10:04:41.038Z,18.74
2023-05-09T10:05:41.032Z,18.72
2023-05-09T10:06:41.118Z,18.75
2023-05-09T10:07:40.981Z,18.59
2023-05-09T10:08:40.969Z,18.53
2023-05-09T10:09:40.972Z,18.64
2023-05-09T10:10:41.157Z,18.78
2023-05-09T10:11:40.924Z,19.13
2023-05-09T10:12:40.963Z,19.70
2023-05-09T10:13:40.917Z,20.16
2023-05-09T10:14:40.893Z,20.60
2023-05-09T10:15:52.331Z,20.78
2023-05-09T10:16:44.271Z,21.00
2023-05-09T10:17:41.039Z,21.18
2023-05-09T10:18:41.064Z,21.40
2023-05-09T10:19:40.818Z,21.24
2023-05-09T10:20:40.811Z,21.08
2023-05-09T10:21:40.793Z,21.24
2023-05-09T10:22:40.912Z,21.11
2023-05-09T10:23:40.770Z,20.98
2023-05-09T10:24:40.770Z,20.78
2023-05-09T10:25:40.746Z,20.56
2023-05-09T10:26:40.728Z,20.63
2023-05-09T10:27:40.770Z,20.54
2023-05-09T10:28:40.705Z,20.19
2023-05-09T10:29:40.691Z,20.27
2023-05-09T10:30:40.675Z,20.41
2023-05-09T10:31:40.709Z,20.69
2023-05-09T10:32:40.727Z,20.94
2023-05-09T10:33:40.637Z,20.87
2023-05-09T10:34:40.671Z,20.68
2023-05-09T10:35:40.610Z,20.79
2023-05-09T10:36:40.601Z,21.06
2023-05-09T10:37:40.595Z,21.08
2023-05-09T10:38:40.696Z,21.22
2023-05-09T10:39:40.555Z,21.19
2023-05-09T10:40:40.559Z,21.30
2023-05-09T10:41:40.524Z,21.37
2023-05-09T10:42:40.514Z,21.24
2023-05-09T10:43:40.500Z,21.09
2023-05-09T10:44:40.522Z,21.08
2023-05-09T10:45:40.497Z,21.08
2023-05-09T10:46:40.559Z,21.26
2023-05-09T10:47:40.470Z,21.40
2023-05-09T10:48:40.430Z,21.63
2023-05-09T10:49:40.416Z,21.66
2023-05-09T10:50:40.487Z,21.64
2023-05-09T10:51:40.392Z,21.42
2023-05-09T10:52:40.378Z,21.36
2023-05-09T10:53:40.365Z,21.33
2023-05-09T10:54:40.462Z,21.22
2023-05-09T10:55:40.330Z,21.45
2023-05-09T10:56:40.318Z,21.53
2023-05-09T10:57:40.313Z,21.42
2023-05-09T10:58:40.293Z,21.26
2023-05-09T10:59:40.279Z,21.26
2023-05-09T11:00:40.267Z,21.21
2023-05-09T11:01:40.337Z,21.33
2023-05-09T11:02:40.278Z,21.22
2023-05-09T11:03:40.356Z,21.18
2023-05-09T11:04:40.232Z,21.08
2023-05-09T11:05:40.207Z,20.98
2023-05-09T11:06:40.190Z,21.03
2023-05-09T11:07:40.174Z,20.90
2023-05-09T11:08:40.304Z,20.97
2023-05-09T11:09:40.156Z,21.00
2023-05-09T11:10:40.261Z,21.15
2023-05-09T11:11:40.123Z,21.12
2023-05-09T11:12:40.189Z,21.03
2023-05-09T11:13:40.137Z,20.93
2023-05-09T11:14:40.084Z,20.91
2023-05-09T11:15:40.136Z,20.94
2023-05-09T11:16:40.067Z,20.82
2023-05-09T11:17:40.068Z,20.76
2023-05-09T11:18:40.030Z,20.76
2023-05-09T11:19:40.022Z,20.64
2023-05-09T11:20:40.002Z,20.71
2023-05-09T11:21:39.988Z,20.69
2023-05-09T11:22:39.990Z,20.63
2023-05-09T11:23:39.970Z,20.57
2023-05-09T11:24:39.983Z,20.54
2023-05-09T11:25:39.941Z,20.40
2023-05-09T11:26:40.060Z,20.20
2023-05-09T11:27:39.935Z,19.98
2023-05-09T11:28:39.986Z,19.92
2023-05-09T11:29:39.880Z,19.76
2023-05-09T11:30:39.884Z,19.76
2023-05-09T11:31:39.880Z,19.85
2023-05-09T11:32:39.978Z,19.86
2023-05-09T11:33:39.835Z,19.82
2023-05-09T11:34:39.819Z,19.82
2023-05-09T11:35:39.805Z,19.85
2023-05-09T11:36:39.788Z,19.75
2023-05-09T11:37:39.774Z,19.82
2023-05-09T11:38:39.757Z,19.95
2023-05-09T11:39:39.747Z,19.78
2023-05-09T11:40:39.736Z,19.87
2023-05-09T11:41:39.783Z,19.86
2023-05-09T11:42:39.836Z,19.90
2023-05-09T11:43:39.709Z,19.89
2023-05-09T11:44:39.712Z,19.89
2023-05-09T11:45:39.713Z,19.87
2023-05-09T11:46:39.664Z,19.92
2023-05-09T11:47:39.684Z,19.78
2023-05-09T11:48:39.748Z,19.61
2023-05-09T11:49:39.618Z,19.42
2023-05-09T11:50:39.608Z,19.39
2023-05-09T11:51:39.582Z,19.39
2023-05-09T11:52:39.579Z,19.35
2023-05-09T11:53:39.559Z,19.31
2023-05-09T11:54:39.547Z,19.35
2023-05-09T11:55:39.537Z,19.34
2023-05-09T11:56:39.517Z,19.39
2023-05-09T11:57:39.508Z,19.32
2023-05-09T11:58:39.618Z,19.38
2023-05-09T11:59:39.483Z,19.39
2023-05-09T12:00:39.680Z,19.42
2023-05-09T12:01:39.467Z,19.30
2023-05-09T12:02:39.517Z,19.27
2023-05-09T12:03:39.493Z,19.27
2023-05-09T12:04:39.621Z,19.30
2023-05-09T12:05:39.399Z,19.17
2023-05-09T12:06:39.384Z,19.25
2023-05-09T12:07:39.368Z,19.34
2023-05-09T12:08:39.652Z,19.32
2023-05-09T12:09:39.540Z,19.43
2023-05-09T12:10:39.332Z,19.45
2023-05-09T12:11:39.330Z,19.46
2023-05-09T12:12:39.321Z,19.55
2023-05-09T12:13:39.287Z,19.65
2023-05-09T12:14:39.395Z,19.75
2023-05-09T12:15:39.280Z,19.68
2023-05-09T12:16:39.306Z,19.62
2023-05-09T12:17:39.304Z,19.76
2023-05-09T12:18:39.234Z,20.01
2023-05-09T12:19:39.556Z,20.12
2023-05-09T12:20:39.186Z,20.17
2023-05-09T12:21:39.172Z,20.38
2023-05-09T12:22:39.164Z,20.40
2023-05-09T12:23:39.157Z,20.60
2023-05-09T12:24:39.138Z,20.68
2023-05-09T12:25:39.350Z,20.68
2023-05-09T12:26:39.108Z,20.69
2023-05-09T12:27:39.100Z,20.76
2023-05-09T12:28:39.089Z,20.68
2023-05-09T12:29:39.079Z,20.82
2023-05-09T12:30:39.186Z,20.81
2023-05-09T12:31:39.143Z,20.87
2023-05-09T12:32:39.086Z,20.94
2023-05-09T12:33:39.032Z,20.79
2023-05-09T12:34:39.009Z,20.87
2023-05-09T12:35:38.991Z,20.97
2023-05-09T12:36:39.006Z,21.00
2023-05-09T12:37:39.187Z,21.06
2023-05-09T12:38:39.005Z,21.19
2023-05-09T12:39:38.932Z,21.15
2023-05-09T12:40:38.926Z,21.09
2023-05-09T12:41:44.063Z,21.08
2023-05-09T12:42:39.932Z,21.00
2023-05-09T12:43:38.883Z,21.00
2023-05-09T12:44:38.880Z,21.01
2023-05-09T12:45:38.870Z,20.81
2023-05-09T12:46:39.010Z,20.71
2023-05-09T12:47:38.954Z,20.58
2023-05-09T12:48:38.822Z,20.53
2023-05-09T12:49:38.797Z,20.48
2023-05-09T12:50:38.800Z,20.48
2023-05-09T12:51:38.792Z,20.40
2023-05-09T12:52:46.986Z,20.38
2023-05-09T12:53:39.775Z,20.23
2023-05-09T12:54:38.734Z,20.31